New Washington, Indiana
Current Conditions -  °F | °C
As of 8:28 PM on Sunday 23 Nov 2014 (Local Time) from KLOU Reporting Station
Overcast Overcast  
Wind Chill: 57°   Ceiling: 1900
Heat Index: 57°   Visibility: 10mi
Dew Point: 55°   Wind: 10mph
Humidity: 93%   Direction: 150°SSE
Pressure: 29.35"   Gusts: 17mph
Location:  38.56°N, 85.54°W
Report Text: KLOU 240128Z 15009G15KT 10SM SCT010 BKN019 OVC023 14/13 A2935 RMK AO2 RAB0055E16 P0000 T01390128
Loading
Personal Weather Stations






























Interactive Weather Map New forecast layout! Learn more

10-Day Weather Forecast

Advertisements
Track Severe Weather on mobile